sensor_id;sensor_type;location;lat;lon;timestamp;P1;durP1;ratioP1;P2;durP2;ratioP2
30096;SDS011;16915;51.466;3.610;2022-12-29T00:01:55;2.78;;;0.70;;
30096;SDS011;16915;51.466;3.610;2022-12-29T00:04:21;1.17;;;0.80;;
30096;SDS011;16915;51.466;3.610;2022-12-29T00:06:47;1.65;;;0.80;;
30096;SDS011;16915;51.466;3.610;2022-12-29T00:09:13;2.90;;;0.75;;
30096;SDS011;16915;51.466;3.610;2022-12-29T00:11:40;2.67;;;0.77;;
30096;SDS011;16915;51.466;3.610;2022-12-29T00:14:06;3.55;;;0.55;;
30096;SDS011;16915;51.466;3.610;2022-12-29T00:16:52;1.13;;;0.50;;
30096;SDS011;16915;51.466;3.610;2022-12-29T00:19:20;2.88;;;0.70;;
30096;SDS011;16915;51.466;3.610;2022-12-29T00:22:04;2.78;;;0.82;;
30096;SDS011;16915;51.466;3.610;2022-12-29T00:24:48;0.90;;;0.47;;
30096;SDS011;16915;51.466;3.610;2022-12-29T00:27:26;2.78;;;0.55;;
30096;SDS011;16915;51.466;3.610;2022-12-29T00:30:21;0.65;;;0.43;;
30096;SDS011;16915;51.466;3.610;2022-12-29T00:35:55;2.35;;;0.90;;
30096;SDS011;16915;51.466;3.610;2022-12-29T00:38:26;2.15;;;0.60;;
30096;SDS011;16915;51.466;3.610;2022-12-29T00:41:12;2.45;;;0.60;;
30096;SDS011;16915;51.466;3.610;2022-12-29T00:43:56;3.70;;;0.57;;
30096;SDS011;16915;51.466;3.610;2022-12-29T00:46:31;6.93;;;0.65;;
30096;SDS011;16915;51.466;3.610;2022-12-29T00:48:58;6.72;;;0.73;;
30096;SDS011;16915;51.466;3.610;2022-12-29T00:51:42;5.95;;;0.80;;
30096;SDS011;16915;51.466;3.610;2022-12-29T00:54:09;4.80;;;0.80;;
30096;SDS011;16915;51.466;3.610;2022-12-29T00:56:35;3.00;;;0.80;;
30096;SDS011;16915;51.466;3.610;2022-12-29T00:59:01;4.68;;;0.80;;
30096;SDS011;16915;51.466;3.610;2022-12-29T01:01:28;5.20;;;0.80;;
30096;SDS011;16915;51.466;3.610;2022-12-29T01:03:54;3.15;;;0.47;;
30096;SDS011;16915;51.466;3.610;2022-12-29T01:06:19;3.05;;;0.70;;
30096;SDS011;16915;51.466;3.610;2022-12-29T01:08:45;3.70;;;0.47;;
30096;SDS011;16915;51.466;3.610;2022-12-29T01:11:11;5.07;;;0.68;;
30096;SDS011;16915;51.466;3.610;2022-12-29T01:13:37;3.25;;;0.70;;
30096;SDS011;16915;51.466;3.610;2022-12-29T01:16:06;3.38;;;0.88;;
30096;SDS011;16915;51.466;3.610;2022-12-29T01:18:31;5.50;;;1.00;;
30096;SDS011;16915;51.466;3.610;2022-12-29T01:20:58;6.75;;;1.17;;
30096;SDS011;16915;51.466;3.610;2022-12-29T01:23:25;1.92;;;0.47;;
30096;SDS011;16915;51.466;3.610;2022-12-29T01:25:51;4.22;;;0.85;;
30096;SDS011;16915;51.466;3.610;2022-12-29T01:28:16;7.70;;;0.98;;
30096;SDS011;16915;51.466;3.610;2022-12-29T01:30:42;4.45;;;0.70;;
30096;SDS011;16915;51.466;3.610;2022-12-29T01:33:07;3.92;;;0.77;;
30096;SDS011;16915;51.466;3.610;2022-12-29T01:35:33;1.95;;;0.40;;
30096;SDS011;16915;51.466;3.610;2022-12-29T01:37:58;3.00;;;0.70;;
30096;SDS011;16915;51.466;3.610;2022-12-29T01:40:24;4.82;;;0.50;;
30096;SDS011;16915;51.466;3.610;2022-12-29T01:42:50;3.13;;;0.47;;
30096;SDS011;16915;51.466;3.610;2022-12-29T01:45:17;3.88;;;1.00;;
30096;SDS011;16915;51.466;3.610;2022-12-29T01:50:26;7.07;;;1.00;;
30096;SDS011;16915;51.466;3.610;2022-12-29T01:52:58;7.57;;;0.85;;
30096;SDS011;16915;51.466;3.610;2022-12-29T01:55:29;4.43;;;0.98;;
30096;SDS011;16915;51.466;3.610;2022-12-29T01:57:58;4.05;;;0.50;;
30096;SDS011;16915;51.466;3.610;2022-12-29T02:00:26;9.80;;;1.08;;
30096;SDS011;16915;51.466;3.610;2022-12-29T02:02:52;8.85;;;0.85;;
30096;SDS011;16915;51.466;3.610;2022-12-29T02:05:30;5.40;;;1.05;;
30096;SDS011;16915;51.466;3.610;2022-12-29T02:08:11;3.92;;;0.80;;
30096;SDS011;16915;51.466;3.610;2022-12-29T02:10:38;7.38;;;0.75;;
30096;SDS011;16915;51.466;3.610;2022-12-29T02:13:05;4.38;;;0.95;;
30096;SDS011;16915;51.466;3.610;2022-12-29T02:32:16;4.13;;;0.88;;
30096;SDS011;16915;51.466;3.610;2022-12-29T02:40:38;3.53;;;0.93;;
30096;SDS011;16915;51.466;3.610;2022-12-29T02:45:56;7.38;;;1.08;;
30096;SDS011;16915;51.466;3.610;2022-12-29T02:48:42;5.97;;;0.98;;
30096;SDS011;16915;51.466;3.610;2022-12-29T02:51:15;12.65;;;0.95;;
30096;SDS011;16915;51.466;3.610;2022-12-29T02:53:45;7.20;;;0.88;;
30096;SDS011;16915;51.466;3.610;2022-12-29T02:56:30;6.10;;;0.98;;
30096;SDS011;16915;51.466;3.610;2022-12-29T02:58:57;5.63;;;0.73;;
30096;SDS011;16915;51.466;3.610;2022-12-29T03:01:31;5.50;;;0.90;;
30096;SDS011;16915;51.466;3.610;2022-12-29T03:04:39;8.90;;;1.10;;
30096;SDS011;16915;51.466;3.610;2022-12-29T03:16:28;13.23;;;1.55;;
30096;SDS011;16915;51.466;3.610;2022-12-29T03:19:04;6.78;;;1.75;;
30096;SDS011;16915;51.466;3.610;2022-12-29T03:21:40;6.68;;;1.13;;
30096;SDS011;16915;51.466;3.610;2022-12-29T03:24:29;5.53;;;1.00;;
30096;SDS011;16915;51.466;3.610;2022-12-29T03:27:01;7.05;;;1.20;;
30096;SDS011;16915;51.466;3.610;2022-12-29T03:29:31;5.75;;;1.15;;
30096;SDS011;16915;51.466;3.610;2022-12-29T03:34:29;5.88;;;1.13;;
30096;SDS011;16915;51.466;3.610;2022-12-29T03:37:00;5.63;;;0.88;;
30096;SDS011;16915;51.466;3.610;2022-12-29T03:39:31;5.93;;;1.10;;
30096;SDS011;16915;51.466;3.610;2022-12-29T03:41:59;9.70;;;1.63;;
30096;SDS011;16915;51.466;3.610;2022-12-29T03:44:33;8.80;;;1.50;;
30096;SDS011;16915;51.466;3.610;2022-12-29T03:47:01;8.95;;;1.33;;
30096;SDS011;16915;51.466;3.610;2022-12-29T03:49:27;9.55;;;1.50;;
30096;SDS011;16915;51.466;3.610;2022-12-29T03:51:52;4.70;;;1.30;;
30096;SDS011;16915;51.466;3.610;2022-12-29T03:54:18;8.07;;;1.63;;
30096;SDS011;16915;51.466;3.610;2022-12-29T03:56:44;16.77;;;1.70;;
30096;SDS011;16915;51.466;3.610;2022-12-29T03:59:09;9.23;;;1.55;;
30096;SDS011;16915;51.466;3.610;2022-12-29T04:01:35;11.63;;;1.63;;
30096;SDS011;16915;51.466;3.610;2022-12-29T04:04:00;14.52;;;1.58;;
30096;SDS011;16915;51.466;3.610;2022-12-29T04:06:26;9.85;;;1.52;;
30096;SDS011;16915;51.466;3.610;2022-12-29T04:08:52;17.52;;;2.30;;
30096;SDS011;16915;51.466;3.610;2022-12-29T04:11:17;11.27;;;1.95;;
30096;SDS011;16915;51.466;3.610;2022-12-29T04:13:43;12.52;;;2.00;;
30096;SDS011;16915;51.466;3.610;2022-12-29T04:16:08;12.25;;;1.98;;
30096;SDS011;16915;51.466;3.610;2022-12-29T04:18:34;9.88;;;1.42;;
30096;SDS011;16915;51.466;3.610;2022-12-29T04:21:00;13.98;;;1.98;;
30096;SDS011;16915;51.466;3.610;2022-12-29T04:23:29;15.45;;;1.67;;
30096;SDS011;16915;51.466;3.610;2022-12-29T04:25:56;10.98;;;1.75;;
30096;SDS011;16915;51.466;3.610;2022-12-29T04:28:21;10.57;;;1.67;;
30096;SDS011;16915;51.466;3.610;2022-12-29T04:30:47;11.30;;;1.70;;
30096;SDS011;16915;51.466;3.610;2022-12-29T04:33:13;11.80;;;1.45;;
30096;SDS011;16915;51.466;3.610;2022-12-29T04:35:39;12.20;;;1.77;;
30096;SDS011;16915;51.466;3.610;2022-12-29T04:38:05;17.33;;;1.80;;
30096;SDS011;16915;51.466;3.610;2022-12-29T04:40:30;16.42;;;1.85;;
30096;SDS011;16915;51.466;3.610;2022-12-29T04:42:56;12.80;;;1.88;;
30096;SDS011;16915;51.466;3.610;2022-12-29T04:45:22;9.30;;;1.20;;
30096;SDS011;16915;51.466;3.610;2022-12-29T04:47:47;10.98;;;1.35;;
30096;SDS011;16915;51.466;3.610;2022-12-29T04:50:13;10.40;;;1.40;;
30096;SDS011;16915;51.466;3.610;2022-12-29T04:52:38;9.30;;;1.50;;
30096;SDS011;16915;51.466;3.610;2022-12-29T04:55:04;12.75;;;2.25;;
30096;SDS011;16915;51.466;3.610;2022-12-29T04:57:30;9.45;;;1.35;;
30096;SDS011;16915;51.466;3.610;2022-12-29T04:59:56;14.27;;;1.50;;
30096;SDS011;16915;51.466;3.610;2022-12-29T05:02:22;7.93;;;1.50;;
30096;SDS011;16915;51.466;3.610;2022-12-29T05:04:47;10.43;;;1.55;;
30096;SDS011;16915;51.466;3.610;2022-12-29T05:07:13;13.35;;;1.25;;
30096;SDS011;16915;51.466;3.610;2022-12-29T05:09:39;13.45;;;1.63;;
30096;SDS011;16915;51.466;3.610;2022-12-29T05:12:05;12.77;;;1.83;;
30096;SDS011;16915;51.466;3.610;2022-12-29T05:14:31;18.17;;;2.08;;
30096;SDS011;16915;51.466;3.610;2022-12-29T05:16:56;10.50;;;1.48;;
30096;SDS011;16915;51.466;3.610;2022-12-29T05:19:22;10.82;;;1.80;;
30096;SDS011;16915;51.466;3.610;2022-12-29T05:21:48;10.38;;;1.75;;
30096;SDS011;16915;51.466;3.610;2022-12-29T05:24:13;14.00;;;1.85;;
30096;SDS011;16915;51.466;3.610;2022-12-29T05:26:40;13.30;;;1.73;;
30096;SDS011;16915;51.466;3.610;2022-12-29T05:29:06;10.98;;;1.90;;
30096;SDS011;16915;51.466;3.610;2022-12-29T05:31:32;9.30;;;1.33;;
30096;SDS011;16915;51.466;3.610;2022-12-29T05:33:58;11.70;;;2.25;;
30096;SDS011;16915;51.466;3.610;2022-12-29T05:36:23;17.17;;;2.53;;
30096;SDS011;16915;51.466;3.610;2022-12-29T05:38:49;19.00;;;3.10;;
30096;SDS011;16915;51.466;3.610;2022-12-29T05:41:15;11.77;;;1.65;;
30096;SDS011;16915;51.466;3.610;2022-12-29T05:43:40;18.08;;;1.80;;
30096;SDS011;16915;51.466;3.610;2022-12-29T05:46:06;11.95;;;1.70;;
30096;SDS011;16915;51.466;3.610;2022-12-29T05:48:32;23.70;;;2.20;;
30096;SDS011;16915;51.466;3.610;2022-12-29T05:50:57;13.93;;;1.65;;
30096;SDS011;16915;51.466;3.610;2022-12-29T05:53:23;24.02;;;2.72;;
30096;SDS011;16915;51.466;3.610;2022-12-29T05:55:48;19.05;;;2.00;;
30096;SDS011;16915;51.466;3.610;2022-12-29T05:58:15;19.50;;;1.83;;
30096;SDS011;16915;51.466;3.610;2022-12-29T06:00:41;14.88;;;1.58;;
30096;SDS011;16915;51.466;3.610;2022-12-29T06:03:07;22.60;;;2.03;;
30096;SDS011;16915;51.466;3.610;2022-12-29T06:05:32;22.48;;;1.83;;
30096;SDS011;16915;51.466;3.610;2022-12-29T06:07:58;9.70;;;1.52;;
30096;SDS011;16915;51.466;3.610;2022-12-29T06:10:23;13.27;;;2.00;;
30096;SDS011;16915;51.466;3.610;2022-12-29T06:12:49;33.10;;;3.45;;
30096;SDS011;16915;51.466;3.610;2022-12-29T06:15:15;14.55;;;2.42;;
30096;SDS011;16915;51.466;3.610;2022-12-29T06:17:40;19.70;;;2.92;;
30096;SDS011;16915;51.466;3.610;2022-12-29T06:20:06;14.82;;;2.28;;
30096;SDS011;16915;51.466;3.610;2022-12-29T06:22:33;15.50;;;1.85;;
30096;SDS011;16915;51.466;3.610;2022-12-29T06:24:59;17.30;;;2.08;;
30096;SDS011;16915;51.466;3.610;2022-12-29T06:27:26;18.30;;;2.10;;
30096;SDS011;16915;51.466;3.610;2022-12-29T06:29:52;15.70;;;2.05;;
30096;SDS011;16915;51.466;3.610;2022-12-29T06:32:17;18.08;;;2.55;;
30096;SDS011;16915;51.466;3.610;2022-12-29T06:34:43;18.33;;;1.98;;
30096;SDS011;16915;51.466;3.610;2022-12-29T06:37:09;9.35;;;1.58;;
30096;SDS011;16915;51.466;3.610;2022-12-29T06:39:35;20.45;;;2.50;;
30096;SDS011;16915;51.466;3.610;2022-12-29T06:42:01;13.15;;;1.95;;
30096;SDS011;16915;51.466;3.610;2022-12-29T06:44:27;9.90;;;2.00;;
30096;SDS011;16915;51.466;3.610;2022-12-29T06:46:52;10.85;;;1.80;;
30096;SDS011;16915;51.466;3.610;2022-12-29T06:49:18;15.73;;;1.90;;
30096;SDS011;16915;51.466;3.610;2022-12-29T06:51:43;13.65;;;1.88;;
30096;SDS011;16915;51.466;3.610;2022-12-29T06:54:09;12.93;;;1.98;;
30096;SDS011;16915;51.466;3.610;2022-12-29T06:56:34;15.27;;;2.53;;
30096;SDS011;16915;51.466;3.610;2022-12-29T06:59:00;17.17;;;2.35;;
30096;SDS011;16915;51.466;3.610;2022-12-29T07:01:26;15.00;;;2.42;;
30096;SDS011;16915;51.466;3.610;2022-12-29T07:03:52;12.88;;;2.08;;
30096;SDS011;16915;51.466;3.610;2022-12-29T07:06:17;12.63;;;2.10;;
30096;SDS011;16915;51.466;3.610;2022-12-29T07:08:43;15.57;;;2.28;;
30096;SDS011;16915;51.466;3.610;2022-12-29T07:11:09;20.63;;;1.90;;
30096;SDS011;16915;51.466;3.610;2022-12-29T07:13:34;14.73;;;2.08;;
30096;SDS011;16915;51.466;3.610;2022-12-29T07:16:04;13.90;;;2.05;;
30096;SDS011;16915;51.466;3.610;2022-12-29T07:18:31;17.40;;;1.83;;
30096;SDS011;16915;51.466;3.610;2022-12-29T07:20:56;12.35;;;2.15;;
30096;SDS011;16915;51.466;3.610;2022-12-29T07:23:23;11.48;;;2.00;;
30096;SDS011;16915;51.466;3.610;2022-12-29T07:25:50;13.25;;;2.15;;
30096;SDS011;16915;51.466;3.610;2022-12-29T07:28:24;17.65;;;2.40;;
30096;SDS011;16915;51.466;3.610;2022-12-29T07:30:50;12.52;;;2.00;;
30096;SDS011;16915;51.466;3.610;2022-12-29T07:33:15;21.67;;;2.40;;
30096;SDS011;16915;51.466;3.610;2022-12-29T07:35:41;13.82;;;2.25;;
30096;SDS011;16915;51.466;3.610;2022-12-29T07:38:06;19.27;;;1.98;;
30096;SDS011;16915;51.466;3.610;2022-12-29T07:40:32;19.08;;;1.60;;
30096;SDS011;16915;51.466;3.610;2022-12-29T07:42:57;15.75;;;2.00;;
30096;SDS011;16915;51.466;3.610;2022-12-29T07:45:23;16.08;;;1.73;;
30096;SDS011;16915;51.466;3.610;2022-12-29T07:47:49;15.80;;;1.65;;
30096;SDS011;16915;51.466;3.610;2022-12-29T07:50:15;12.98;;;2.00;;
30096;SDS011;16915;51.466;3.610;2022-12-29T07:52:40;12.25;;;1.70;;
30096;SDS011;16915;51.466;3.610;2022-12-29T07:55:06;10.15;;;1.90;;
30096;SDS011;16915;51.466;3.610;2022-12-29T07:57:32;15.77;;;1.50;;
30096;SDS011;16915;51.466;3.610;2022-12-29T07:59:58;15.73;;;1.80;;
30096;SDS011;16915;51.466;3.610;2022-12-29T08:02:24;16.85;;;2.10;;
30096;SDS011;16915;51.466;3.610;2022-12-29T08:04:51;13.23;;;1.85;;
30096;SDS011;16915;51.466;3.610;2022-12-29T08:07:16;15.38;;;2.28;;
30096;SDS011;16915;51.466;3.610;2022-12-29T08:09:42;18.92;;;2.33;;
30096;SDS011;16915;51.466;3.610;2022-12-29T08:12:09;19.17;;;1.50;;
30096;SDS011;16915;51.466;3.610;2022-12-29T08:14:35;17.98;;;2.45;;
30096;SDS011;16915;51.466;3.610;2022-12-29T08:17:01;12.68;;;2.28;;
30096;SDS011;16915;51.466;3.610;2022-12-29T08:19:26;10.07;;;2.10;;
30096;SDS011;16915;51.466;3.610;2022-12-29T08:21:52;10.73;;;1.35;;
30096;SDS011;16915;51.466;3.610;2022-12-29T08:24:18;13.43;;;1.80;;
30096;SDS011;16915;51.466;3.610;2022-12-29T08:26:43;15.70;;;1.60;;
30096;SDS011;16915;51.466;3.610;2022-12-29T08:29:09;13.32;;;2.15;;
30096;SDS011;16915;51.466;3.610;2022-12-29T08:31:35;10.70;;;1.80;;
30096;SDS011;16915;51.466;3.610;2022-12-29T08:34:00;15.95;;;2.00;;
30096;SDS011;16915;51.466;3.610;2022-12-29T08:36:28;16.25;;;2.53;;
30096;SDS011;16915;51.466;3.610;2022-12-29T08:38:54;12.18;;;1.95;;
30096;SDS011;16915;51.466;3.610;2022-12-29T08:41:19;14.52;;;1.73;;
30096;SDS011;16915;51.466;3.610;2022-12-29T08:43:45;21.63;;;2.33;;
30096;SDS011;16915;51.466;3.610;2022-12-29T08:46:12;13.93;;;1.95;;
30096;SDS011;16915;51.466;3.610;2022-12-29T08:48:37;10.35;;;1.70;;
30096;SDS011;16915;51.466;3.610;2022-12-29T08:51:03;10.57;;;2.10;;
30096;SDS011;16915;51.466;3.610;2022-12-29T08:53:29;11.38;;;1.75;;
30096;SDS011;16915;51.466;3.610;2022-12-29T08:55:55;16.10;;;2.40;;
30096;SDS011;16915;51.466;3.610;2022-12-29T08:58:24;16.92;;;2.28;;
30096;SDS011;16915;51.466;3.610;2022-12-29T09:00:51;17.23;;;2.33;;
30096;SDS011;16915;51.466;3.610;2022-12-29T09:03:21;17.73;;;2.30;;
30096;SDS011;16915;51.466;3.610;2022-12-29T09:05:51;24.17;;;3.03;;
30096;SDS011;16915;51.466;3.610;2022-12-29T09:08:17;21.10;;;3.20;;
30096;SDS011;16915;51.466;3.610;2022-12-29T09:10:43;22.02;;;2.90;;
30096;SDS011;16915;51.466;3.610;2022-12-29T09:13:09;22.45;;;2.97;;
30096;SDS011;16915;51.466;3.610;2022-12-29T09:15:36;24.42;;;3.13;;
30096;SDS011;16915;51.466;3.610;2022-12-29T09:18:02;26.98;;;2.92;;
30096;SDS011;16915;51.466;3.610;2022-12-29T09:20:27;21.33;;;3.50;;
30096;SDS011;16915;51.466;3.610;2022-12-29T09:22:53;33.67;;;3.38;;
30096;SDS011;16915;51.466;3.610;2022-12-29T09:25:19;24.95;;;2.90;;
30096;SDS011;16915;51.466;3.610;2022-12-29T09:27:44;26.58;;;3.55;;
30096;SDS011;16915;51.466;3.610;2022-12-29T09:30:12;28.38;;;3.10;;
30096;SDS011;16915;51.466;3.610;2022-12-29T09:32:39;25.00;;;3.15;;
30096;SDS011;16915;51.466;3.610;2022-12-29T09:35:05;27.17;;;3.22;;
30096;SDS011;16915;51.466;3.610;2022-12-29T09:37:31;24.55;;;3.33;;
30096;SDS011;16915;51.466;3.610;2022-12-29T09:39:57;27.58;;;4.55;;
30096;SDS011;16915;51.466;3.610;2022-12-29T09:42:34;28.92;;;4.07;;
30096;SDS011;16915;51.466;3.610;2022-12-29T09:45:14;20.27;;;3.35;;
30096;SDS011;16915;51.466;3.610;2022-12-29T09:47:58;25.95;;;3.00;;
30096;SDS011;16915;51.466;3.610;2022-12-29T09:50:26;21.80;;;3.90;;
30096;SDS011;16915;51.466;3.610;2022-12-29T09:53:09;25.02;;;3.58;;
30096;SDS011;16915;51.466;3.610;2022-12-29T09:55:50;15.55;;;2.50;;
30096;SDS011;16915;51.466;3.610;2022-12-29T09:58:32;21.65;;;3.08;;
30096;SDS011;16915;51.466;3.610;2022-12-29T10:04:07;18.42;;;2.53;;
30096;SDS011;16915;51.466;3.610;2022-12-29T10:06:39;24.48;;;3.15;;
30096;SDS011;16915;51.466;3.610;2022-12-29T10:12:06;19.70;;;3.15;;
30096;SDS011;16915;51.466;3.610;2022-12-29T10:15:18;15.55;;;2.47;;
30096;SDS011;16915;51.466;3.610;2022-12-29T10:20:53;20.20;;;3.05;;
30096;SDS011;16915;51.466;3.610;2022-12-29T10:23:39;26.25;;;3.38;;
30096;SDS011;16915;51.466;3.610;2022-12-29T10:26:17;25.02;;;4.28;;
30096;SDS011;16915;51.466;3.610;2022-12-29T10:29:05;27.10;;;3.28;;
30096;SDS011;16915;51.466;3.610;2022-12-29T10:31:44;23.23;;;2.97;;
30096;SDS011;16915;51.466;3.610;2022-12-29T10:34:20;19.45;;;3.78;;
30096;SDS011;16915;51.466;3.610;2022-12-29T10:36:52;18.85;;;2.58;;
30096;SDS011;16915;51.466;3.610;2022-12-29T10:39:27;18.70;;;3.22;;
30096;SDS011;16915;51.466;3.610;2022-12-29T10:45:05;20.63;;;2.88;;
30096;SDS011;16915;51.466;3.610;2022-12-29T10:47:37;25.98;;;3.63;;
30096;SDS011;16915;51.466;3.610;2022-12-29T10:50:12;17.77;;;3.08;;
30096;SDS011;16915;51.466;3.610;2022-12-29T10:52:38;13.73;;;2.70;;
30096;SDS011;16915;51.466;3.610;2022-12-29T10:57:37;23.67;;;3.58;;
30096;SDS011;16915;51.466;3.610;2022-12-29T11:00:23;24.45;;;2.92;;
30096;SDS011;16915;51.466;3.610;2022-12-29T11:03:02;25.35;;;2.75;;
30096;SDS011;16915;51.466;3.610;2022-12-29T11:05:49;16.63;;;2.90;;
30096;SDS011;16915;51.466;3.610;2022-12-29T11:08:28;22.35;;;3.20;;
30096;SDS011;16915;51.466;3.610;2022-12-29T11:11:01;23.02;;;3.45;;
30096;SDS011;16915;51.466;3.610;2022-12-29T11:13:29;24.30;;;3.28;;
30096;SDS011;16915;51.466;3.610;2022-12-29T11:15:56;22.50;;;3.30;;
30096;SDS011;16915;51.466;3.610;2022-12-29T11:18:40;18.08;;;2.63;;
30096;SDS011;16915;51.466;3.610;2022-12-29T11:24:01;21.55;;;2.95;;
30096;SDS011;16915;51.466;3.610;2022-12-29T11:26:29;21.70;;;2.95;;
30096;SDS011;16915;51.466;3.610;2022-12-29T11:31:46;12.80;;;2.58;;
30096;SDS011;16915;51.466;3.610;2022-12-29T11:34:19;19.83;;;2.90;;
30096;SDS011;16915;51.466;3.610;2022-12-29T11:36:53;12.57;;;2.38;;
30096;SDS011;16915;51.466;3.610;2022-12-29T11:39:25;26.00;;;2.88;;
30096;SDS011;16915;51.466;3.610;2022-12-29T11:41:54;23.38;;;3.05;;
30096;SDS011;16915;51.466;3.610;2022-12-29T11:44:20;14.95;;;2.88;;
30096;SDS011;16915;51.466;3.610;2022-12-29T11:46:47;22.17;;;2.95;;
30096;SDS011;16915;51.466;3.610;2022-12-29T11:49:19;20.10;;;2.65;;
30096;SDS011;16915;51.466;3.610;2022-12-29T11:51:47;14.00;;;2.13;;
30096;SDS011;16915;51.466;3.610;2022-12-29T11:54:19;20.75;;;3.03;;
30096;SDS011;16915;51.466;3.610;2022-12-29T11:56:53;16.83;;;2.15;;
30096;SDS011;16915;51.466;3.610;2022-12-29T12:04:42;11.65;;;1.65;;
30096;SDS011;16915;51.466;3.610;2022-12-29T12:07:11;9.93;;;1.83;;
30096;SDS011;16915;51.466;3.610;2022-12-29T12:09:45;7.10;;;1.15;;
30096;SDS011;16915;51.466;3.610;2022-12-29T12:15:27;13.57;;;1.35;;
30096;SDS011;16915;51.466;3.610;2022-12-29T12:18:03;10.75;;;1.85;;
30096;SDS011;16915;51.466;3.610;2022-12-29T12:20:54;14.88;;;2.22;;
30096;SDS011;16915;51.466;3.610;2022-12-29T12:26:32;8.43;;;1.23;;
30096;SDS011;16915;51.466;3.610;2022-12-29T12:32:16;12.13;;;1.90;;
30096;SDS011;16915;51.466;3.610;2022-12-29T12:34:47;8.05;;;1.00;;
30096;SDS011;16915;51.466;3.610;2022-12-29T12:48:25;12.82;;;1.33;;
30096;SDS011;16915;51.466;3.610;2022-12-29T12:51:17;11.32;;;1.40;;
30096;SDS011;16915;51.466;3.610;2022-12-29T12:54:12;8.85;;;1.50;;
30096;SDS011;16915;51.466;3.610;2022-12-29T13:02:40;6.47;;;1.30;;
30096;SDS011;16915;51.466;3.610;2022-12-29T13:13:53;5.72;;;1.02;;
30096;SDS011;16915;51.466;3.610;2022-12-29T13:19:24;8.50;;;1.33;;
30096;SDS011;16915;51.466;3.610;2022-12-29T13:22:15;6.22;;;1.70;;
30096;SDS011;16915;51.466;3.610;2022-12-29T13:30:20;6.97;;;0.98;;
30096;SDS011;16915;51.466;3.610;2022-12-29T13:33:07;12.98;;;1.63;;
30096;SDS011;16915;51.466;3.610;2022-12-29T13:39:16;8.40;;;1.20;;
30096;SDS011;16915;51.466;3.610;2022-12-29T13:42:13;7.03;;;0.90;;
30096;SDS011;16915;51.466;3.610;2022-12-29T13:44:44;7.13;;;1.48;;
30096;SDS011;16915;51.466;3.610;2022-12-29T13:50:05;10.30;;;1.65;;
30096;SDS011;16915;51.466;3.610;2022-12-29T13:52:47;10.07;;;1.17;;
30096;SDS011;16915;51.466;3.610;2022-12-29T13:55:29;4.50;;;1.25;;
30096;SDS011;16915;51.466;3.610;2022-12-29T13:58:12;7.05;;;0.90;;
30096;SDS011;16915;51.466;3.610;2022-12-29T14:03:52;7.75;;;1.10;;
30096;SDS011;16915;51.466;3.610;2022-12-29T14:06:23;8.02;;;1.15;;
30096;SDS011;16915;51.466;3.610;2022-12-29T14:08:52;4.85;;;1.10;;
30096;SDS011;16915;51.466;3.610;2022-12-29T14:11:52;5.18;;;0.93;;
30096;SDS011;16915;51.466;3.610;2022-12-29T14:14:21;8.32;;;1.20;;
30096;SDS011;16915;51.466;3.610;2022-12-29T14:16:49;5.45;;;0.85;;
30096;SDS011;16915;51.466;3.610;2022-12-29T14:19:17;6.65;;;1.15;;
30096;SDS011;16915;51.466;3.610;2022-12-29T14:21:59;3.92;;;0.98;;
30096;SDS011;16915;51.466;3.610;2022-12-29T14:26:59;7.85;;;1.25;;
30096;SDS011;16915;51.466;3.610;2022-12-29T14:31:54;5.75;;;1.35;;
30096;SDS011;16915;51.466;3.610;2022-12-29T14:42:11;9.68;;;1.08;;
30096;SDS011;16915;51.466;3.610;2022-12-29T14:44:46;3.38;;;0.80;;
30096;SDS011;16915;51.466;3.610;2022-12-29T14:47:25;4.95;;;0.90;;
30096;SDS011;16915;51.466;3.610;2022-12-29T14:50:04;7.57;;;1.45;;
30096;SDS011;16915;51.466;3.610;2022-12-29T14:52:32;7.78;;;1.00;;
30096;SDS011;16915;51.466;3.610;2022-12-29T14:57:59;6.88;;;1.15;;
30096;SDS011;16915;51.466;3.610;2022-12-29T15:00:27;5.55;;;0.80;;
30096;SDS011;16915;51.466;3.610;2022-12-29T15:03:06;9.68;;;1.67;;
30096;SDS011;16915;51.466;3.610;2022-12-29T15:05:45;7.35;;;1.20;;
30096;SDS011;16915;51.466;3.610;2022-12-29T15:08:16;3.55;;;1.02;;
30096;SDS011;16915;51.466;3.610;2022-12-29T15:10:53;7.28;;;1.00;;
30096;SDS011;16915;51.466;3.610;2022-12-29T15:13:35;7.20;;;1.40;;
30096;SDS011;16915;51.466;3.610;2022-12-29T15:16:20;5.55;;;1.52;;
30096;SDS011;16915;51.466;3.610;2022-12-29T15:18:52;10.57;;;1.38;;
30096;SDS011;16915;51.466;3.610;2022-12-29T15:21:20;8.90;;;1.10;;
30096;SDS011;16915;51.466;3.610;2022-12-29T15:23:51;9.52;;;1.33;;
30096;SDS011;16915;51.466;3.610;2022-12-29T15:26:18;10.20;;;1.02;;
30096;SDS011;16915;51.466;3.610;2022-12-29T15:28:51;11.13;;;1.85;;
30096;SDS011;16915;51.466;3.610;2022-12-29T15:31:23;17.50;;;1.55;;
30096;SDS011;16915;51.466;3.610;2022-12-29T15:33:51;6.93;;;1.17;;
30096;SDS011;16915;51.466;3.610;2022-12-29T15:36:22;4.93;;;1.13;;
30096;SDS011;16915;51.466;3.610;2022-12-29T15:38:50;10.77;;;1.42;;
30096;SDS011;16915;51.466;3.610;2022-12-29T15:41:24;7.95;;;1.27;;
30096;SDS011;16915;51.466;3.610;2022-12-29T15:44:25;12.88;;;1.35;;
30096;SDS011;16915;51.466;3.610;2022-12-29T15:46:54;10.63;;;1.30;;
30096;SDS011;16915;51.466;3.610;2022-12-29T15:49:19;13.70;;;1.85;;
30096;SDS011;16915;51.466;3.610;2022-12-29T15:51:45;8.48;;;1.75;;
30096;SDS011;16915;51.466;3.610;2022-12-29T15:54:18;6.63;;;0.98;;
30096;SDS011;16915;51.466;3.610;2022-12-29T15:56:46;8.05;;;1.40;;
30096;SDS011;16915;51.466;3.610;2022-12-29T16:02:10;5.63;;;1.38;;
30096;SDS011;16915;51.466;3.610;2022-12-29T16:04:37;10.68;;;1.40;;
30096;SDS011;16915;51.466;3.610;2022-12-29T16:07:05;10.85;;;1.10;;
30096;SDS011;16915;51.466;3.610;2022-12-29T16:09:36;10.30;;;1.48;;
30096;SDS011;16915;51.466;3.610;2022-12-29T16:12:17;11.80;;;1.05;;
30096;SDS011;16915;51.466;3.610;2022-12-29T16:14:48;8.15;;;1.17;;
30096;SDS011;16915;51.466;3.610;2022-12-29T16:17:20;10.00;;;1.83;;
30096;SDS011;16915;51.466;3.610;2022-12-29T16:19:49;11.90;;;2.28;;
30096;SDS011;16915;51.466;3.610;2022-12-29T16:22:39;4.78;;;1.52;;
30096;SDS011;16915;51.466;3.610;2022-12-29T16:27:50;5.72;;;1.15;;
30096;SDS011;16915;51.466;3.610;2022-12-29T16:32:53;7.90;;;1.30;;
30096;SDS011;16915;51.466;3.610;2022-12-29T16:38:18;9.70;;;1.75;;
30096;SDS011;16915;51.466;3.610;2022-12-29T16:43:32;14.38;;;1.92;;
30096;SDS011;16915;51.466;3.610;2022-12-29T16:51:01;10.05;;;1.67;;
30096;SDS011;16915;51.466;3.610;2022-12-29T16:53:35;14.02;;;1.42;;
30096;SDS011;16915;51.466;3.610;2022-12-29T16:56:15;10.75;;;1.80;;
30096;SDS011;16915;51.466;3.610;2022-12-29T16:58:45;13.60;;;1.83;;
30096;SDS011;16915;51.466;3.610;2022-12-29T17:01:13;14.90;;;2.03;;
30096;SDS011;16915;51.466;3.610;2022-12-29T17:03:46;9.68;;;1.70;;
30096;SDS011;16915;51.466;3.610;2022-12-29T17:06:16;11.70;;;2.08;;
30096;SDS011;16915;51.466;3.610;2022-12-29T17:08:43;13.23;;;1.88;;
30096;SDS011;16915;51.466;3.610;2022-12-29T17:11:20;10.02;;;1.63;;
30096;SDS011;16915;51.466;3.610;2022-12-29T17:14:12;7.25;;;1.60;;
30096;SDS011;16915;51.466;3.610;2022-12-29T17:16:42;12.68;;;1.48;;
30096;SDS011;16915;51.466;3.610;2022-12-29T17:19:10;14.02;;;2.63;;
30096;SDS011;16915;51.466;3.610;2022-12-29T17:21:41;16.65;;;1.85;;
30096;SDS011;16915;51.466;3.610;2022-12-29T17:24:13;10.57;;;1.88;;
30096;SDS011;16915;51.466;3.610;2022-12-29T17:26:42;11.98;;;1.98;;
30096;SDS011;16915;51.466;3.610;2022-12-29T17:29:09;10.38;;;1.98;;
30096;SDS011;16915;51.466;3.610;2022-12-29T17:31:46;13.45;;;2.22;;
30096;SDS011;16915;51.466;3.610;2022-12-29T17:34:13;16.38;;;2.55;;
30096;SDS011;16915;51.466;3.610;2022-12-29T17:36:39;13.38;;;2.08;;